![]() |
EMODnet Physics ERDDAP
Easier access to scientific data |
log in|
Brought to you by EMODnet Physics |
| Dataset Title: | NDBC - Collection of dew point temperature (DEWT) TimeSeries - IN SITU MultiPointTimeSeriesObservation
|
| Institution: | NDBC (Dataset ID: TS_DEWT_NDBC) |
| Information: | Summary
| License
| FGDC
| ISO 19115
| Metadata
| Background
| Subset
| Data Access Form
| Make a graph
|
| Name | Last modified | Size | Description | |
|---|---|---|---|---|
| Parent Directory | - | - | ||
| MBPA1_TS_DEWT_012016.nc | 27-Oct-2024 12:34 | 451390 | ||
| MBPA1_TS_DEWT_012019.nc | 27-Oct-2024 12:35 | 451571 | ||
| MBPA1_TS_DEWT_012020.nc | 27-Oct-2024 12:35 | 449644 | ||
| MBPA1_TS_DEWT_012021.nc | 27-Oct-2024 12:35 | 449434 | ||
| MBPA1_TS_DEWT_012022.nc | 27-Oct-2024 12:35 | 449978 | ||
| MBPA1_TS_DEWT_012023.nc | 27-Oct-2024 12:35 | 449181 | ||
| MBPA1_TS_DEWT_012024.nc | 27-Oct-2024 12:35 | 449340 | ||
| MBPA1_TS_DEWT_012025.nc | 07-Feb-2025 12:28 | 450094 | ||
| MBPA1_TS_DEWT_022015.nc | 27-Oct-2024 12:35 | 450135 | ||
| MBPA1_TS_DEWT_022016.nc | 27-Oct-2024 12:35 | 450399 | ||
| MBPA1_TS_DEWT_022019.nc | 27-Oct-2024 12:35 | 451068 | ||
| MBPA1_TS_DEWT_022020.nc | 27-Oct-2024 12:35 | 448776 | ||
| MBPA1_TS_DEWT_022021.nc | 27-Oct-2024 12:35 | 449414 | ||
| MBPA1_TS_DEWT_022022.nc | 27-Oct-2024 12:35 | 449225 | ||
| MBPA1_TS_DEWT_022023.nc | 27-Oct-2024 12:35 | 449428 | ||
| MBPA1_TS_DEWT_022024.nc | 16-Sep-2024 16:51 | 1072529 | ||
| MBPA1_TS_DEWT_022025.nc | 01-Mar-2025 07:38 | 434743 | ||
| MBPA1_TS_DEWT_032016.nc | 27-Oct-2024 12:36 | 449387 | ||
| MBPA1_TS_DEWT_032019.nc | 27-Oct-2024 12:36 | 449841 | ||
| MBPA1_TS_DEWT_032020.nc | 27-Oct-2024 12:36 | 450295 | ||
| MBPA1_TS_DEWT_032021.nc | 27-Oct-2024 12:36 | 1184249 | ||
| MBPA1_TS_DEWT_032022.nc | 27-Oct-2024 12:36 | 450470 | ||
| MBPA1_TS_DEWT_032023.nc | 27-Oct-2024 12:36 | 449385 | ||
| MBPA1_TS_DEWT_032025.nc | 02-Apr-2025 05:37 | 448435 | ||
| MBPA1_TS_DEWT_042015.nc | 27-Oct-2024 12:36 | 449347 | ||
| MBPA1_TS_DEWT_042016.nc | 27-Oct-2024 12:36 | 450594 | ||
| MBPA1_TS_DEWT_042019.nc | 27-Oct-2024 12:36 | 1224873 | ||
| MBPA1_TS_DEWT_042020.nc | 27-Oct-2024 12:36 | 448698 | ||
| MBPA1_TS_DEWT_042021.nc | 27-Oct-2024 12:36 | 449485 | ||
| MBPA1_TS_DEWT_042022.nc | 27-Oct-2024 12:36 | 449140 | ||
| MBPA1_TS_DEWT_042023.nc | 27-Oct-2024 12:36 | 449717 | ||
| MBPA1_TS_DEWT_042025.nc | 01-May-2025 06:39 | 450065 | ||
| MBPA1_TS_DEWT_052019.nc | 27-Oct-2024 12:36 | 1036353 | ||
| MBPA1_TS_DEWT_052020.nc | 27-Oct-2024 12:37 | 425965 | ||
| MBPA1_TS_DEWT_052021.nc | 27-Oct-2024 12:37 | 450610 | ||
| MBPA1_TS_DEWT_052022.nc | 27-Oct-2024 12:37 | 449852 | ||
| MBPA1_TS_DEWT_052025.nc | 01-Jun-2025 07:23 | 450438 | ||
| MBPA1_TS_DEWT_062019.nc | 27-Oct-2024 12:37 | 451016 | ||
| MBPA1_TS_DEWT_062020.nc | 27-Oct-2024 12:37 | 449777 | ||
| MBPA1_TS_DEWT_062021.nc | 27-Oct-2024 12:37 | 450410 | ||
| MBPA1_TS_DEWT_062022.nc | 27-Oct-2024 12:37 | 449159 | ||
| MBPA1_TS_DEWT_062023.nc | 27-Oct-2024 12:37 | 449066 | ||
| MBPA1_TS_DEWT_062025.nc | 17-Jun-2025 05:50 | 449953 | ||
| MBPA1_TS_DEWT_072015.nc | 27-Oct-2024 12:37 | 449657 | ||
| MBPA1_TS_DEWT_072019.nc | 27-Oct-2024 12:37 | 450047 | ||
| MBPA1_TS_DEWT_072020.nc | 27-Oct-2024 12:37 | 450803 | ||
| MBPA1_TS_DEWT_072021.nc | 27-Oct-2024 12:37 | 451375 | ||
| MBPA1_TS_DEWT_072022.nc | 27-Oct-2024 12:37 | 450789 | ||
| MBPA1_TS_DEWT_072023.nc | 27-Oct-2024 12:37 | 448982 | ||
| MBPA1_TS_DEWT_072025.nc | 16-Aug-2025 07:57 | 428322 | ||
| MBPA1_TS_DEWT_082015.nc | 27-Oct-2024 12:37 | 429841 | ||
| MBPA1_TS_DEWT_082019.nc | 27-Oct-2024 12:37 | 428615 | ||
| MBPA1_TS_DEWT_082020.nc | 27-Oct-2024 12:38 | 419278 | ||
| MBPA1_TS_DEWT_082021.nc | 27-Oct-2024 12:38 | 429623 | ||
| MBPA1_TS_DEWT_082022.nc | 27-Oct-2024 12:38 | 429288 | ||
| MBPA1_TS_DEWT_082023.nc | 27-Oct-2024 12:38 | 429621 | ||
| MBPA1_TS_DEWT_082025.nc | 01-Sep-2025 07:58 | 429291 | ||
| MBPA1_TS_DEWT_092018.nc | 27-Oct-2024 12:38 | 429614 | ||
| MBPA1_TS_DEWT_092019.nc | 27-Oct-2024 12:38 | 426972 | ||
| MBPA1_TS_DEWT_092020.nc | 27-Oct-2024 12:38 | 429624 | ||
| MBPA1_TS_DEWT_092021.nc | 27-Oct-2024 12:38 | 429269 | ||
| MBPA1_TS_DEWT_092022.nc | 27-Oct-2024 12:38 | 426342 | ||
| MBPA1_TS_DEWT_092023.nc | 27-Oct-2024 12:38 | 429597 | ||
| MBPA1_TS_DEWT_092025.nc | 01-Oct-2025 08:24 | 428033 | ||
| MBPA1_TS_DEWT_102018.nc | 27-Oct-2024 12:38 | 427531 | ||
| MBPA1_TS_DEWT_102019.nc | 27-Oct-2024 12:38 | 450858 | ||
| MBPA1_TS_DEWT_102020.nc | 27-Oct-2024 12:38 | 450284 | ||
| MBPA1_TS_DEWT_102021.nc | 27-Oct-2024 12:38 | 448576 | ||
| MBPA1_TS_DEWT_102022.nc | 27-Oct-2024 12:39 | 436021 | ||
| MBPA1_TS_DEWT_102023.nc | 27-Oct-2024 12:39 | 443586 | ||
| MBPA1_TS_DEWT_102024.nc | 12-Jan-2025 22:37 | 451027 | ||
| MBPA1_TS_DEWT_102025.nc | 01-Nov-2025 07:55 | 424741 | ||
| MBPA1_TS_DEWT_112018.nc | 27-Oct-2024 12:39 | 420978 | ||
| MBPA1_TS_DEWT_112019.nc | 27-Oct-2024 12:39 | 448566 | ||
| MBPA1_TS_DEWT_112020.nc | 27-Oct-2024 12:39 | 449331 | ||
| MBPA1_TS_DEWT_112021.nc | 27-Oct-2024 12:39 | 449346 | ||
| MBPA1_TS_DEWT_112022.nc | 27-Oct-2024 12:39 | 451058 | ||
| MBPA1_TS_DEWT_112023.nc | 27-Oct-2024 12:39 | 441546 | ||
| MBPA1_TS_DEWT_112024.nc | 17-Jan-2025 19:07 | 450466 | ||
| MBPA1_TS_DEWT_112025.nc | 28-Nov-2025 09:56 | 449236 | ||
| MBPA1_TS_DEWT_122018.nc | 27-Oct-2024 12:39 | 432631 | ||
| MBPA1_TS_DEWT_122019.nc | 27-Oct-2024 12:39 | 448536 | ||
| MBPA1_TS_DEWT_122020.nc | 27-Oct-2024 12:39 | 447682 | ||
| MBPA1_TS_DEWT_122021.nc | 27-Oct-2024 12:39 | 420972 | ||
| MBPA1_TS_DEWT_122022.nc | 27-Oct-2024 12:39 | 442125 | ||
| MBPA1_TS_DEWT_122023.nc | 27-Oct-2024 12:40 | 450658 | ||
| MBPA1_TS_DEWT_122024.nc | 22-Jan-2025 19:23 | 449458 | ||
| MBPA1_TS_DEWT_122025.nc | 08-Dec-2025 04:48 | 449386 | ||